Rechercher aéroport 
image banner adimage banner adimage banner ad
image banner ad

39PN - Nelson's Run

Situé à Mercer, United States

ICAO - 39PN, IATA -

Données fournies par Airmate  

Information générale

Coordonnées: N41°12'57" W80°11'51"
Élévation : 1305 feet MSL.
Variation magnétique : -08° East
Voir autres Aéroports à Pennsylvania

Données opérationnelles

Special qualification required
Heure actuelle UTC:
Heure actuelle locale:
Météo à : KUCP - New Castle Muni ( 28 km )
METAR: KUCP 132134Z AUTO 00000KT 10SM FEW028 BKN043 BKN050 25/20 A2984 RMK AO2 LTG DSNT SE TSB08E23RAE06
Voir NOTAMs / SUP AIP / TFR affectant cet aéroport [VIEW]
Fréquences de communication: [VIEW]

Pistes:

Identifiant RWYQFULongueur (ft)Largeur (ft)SurfaceLDA (ft)
092500250GRASS
272500250GRASS

Coordonnées de l'aéroport

Adresse: Mercer United States

Vue satellite de 39PN